createdAt,value
2018-04-11T00:00:35.188Z,7.20
2018-04-11T00:03:03.413Z,8.52
2018-04-11T00:05:30.912Z,8.82
2018-04-11T00:07:59.712Z,7.35
2018-04-11T00:10:28.530Z,7.70
2018-04-11T00:12:57.367Z,9.10
2018-04-11T00:15:26.182Z,8.85
2018-04-11T00:17:55.004Z,9.30
2018-04-11T00:20:23.821Z,8.70
2018-04-11T00:22:52.765Z,9.07
2018-04-11T00:25:21.653Z,8.90
2018-04-11T00:27:50.491Z,8.13
2018-04-11T00:30:19.295Z,8.07
2018-04-11T00:32:48.148Z,12.48
2018-04-11T00:35:16.992Z,9.75
2018-04-11T00:37:45.844Z,8.15
2018-04-11T00:40:14.652Z,8.45
2018-04-11T00:42:43.477Z,8.82
2018-04-11T00:45:12.291Z,9.65
2018-04-11T00:47:41.188Z,9.80
2018-04-11T00:50:09.998Z,10.45
2018-04-11T00:52:38.822Z,11.02
2018-04-11T00:55:07.655Z,9.85
2018-04-11T00:57:36.486Z,11.15
2018-04-11T01:00:05.334Z,8.75
2018-04-11T01:02:34.136Z,9.93
2018-04-11T01:05:02.967Z,7.60
2018-04-11T01:07:31.777Z,7.85
2018-04-11T01:10:00.623Z,7.50
2018-04-11T01:12:29.531Z,6.28
2018-04-11T01:14:58.343Z,6.37
2018-04-11T01:17:27.214Z,6.72
2018-04-11T01:19:55.976Z,8.93
2018-04-11T01:22:24.804Z,8.45
2018-04-11T01:24:53.603Z,8.40
2018-04-11T01:27:22.431Z,7.95
2018-04-11T01:29:51.248Z,7.95
2018-04-11T01:32:20.104Z,7.18
2018-04-11T01:34:48.913Z,6.18
2018-04-11T01:37:17.723Z,5.85
2018-04-11T01:39:46.523Z,6.05
2018-04-11T01:42:15.343Z,6.43
2018-04-11T01:44:44.190Z,6.60
2018-04-11T01:47:13.041Z,6.70
2018-04-11T01:49:41.866Z,7.57
2018-04-11T01:52:10.685Z,8.10
2018-04-11T01:54:39.555Z,8.57
2018-04-11T01:57:08.410Z,10.60
2018-04-11T01:59:37.227Z,9.60
2018-04-11T02:02:06.051Z,8.70
2018-04-11T02:04:34.885Z,8.38
2018-04-11T02:07:03.900Z,9.02
2018-04-11T02:09:32.709Z,8.15
2018-04-11T02:12:01.593Z,8.48
2018-04-11T02:14:30.439Z,8.20
2018-04-11T02:16:59.246Z,9.30
2018-04-11T02:19:28.064Z,8.98
2018-04-11T02:21:56.901Z,8.45
2018-04-11T02:24:25.926Z,8.80
2018-04-11T02:26:54.960Z,8.63
2018-04-11T02:29:23.876Z,9.02
2018-04-11T02:31:52.700Z,9.88
2018-04-11T02:34:21.508Z,10.05
2018-04-11T02:36:50.583Z,10.20
2018-04-11T02:39:19.391Z,9.35
2018-04-11T02:41:48.228Z,10.77
2018-04-11T02:44:17.031Z,10.18
2018-04-11T02:46:45.863Z,10.57
2018-04-11T02:49:14.681Z,10.05
2018-04-11T02:51:43.518Z,9.15
2018-04-11T02:54:12.327Z,10.65
2018-04-11T02:56:41.254Z,9.38
2018-04-11T02:59:10.072Z,12.02
2018-04-11T03:01:38.876Z,12.65
2018-04-11T03:04:07.706Z,12.48
2018-04-11T03:06:36.513Z,13.77
2018-04-11T03:09:05.343Z,14.82
2018-04-11T03:11:34.170Z,14.63
2018-04-11T03:14:03.012Z,13.10
2018-04-11T03:16:31.823Z,13.93
2018-04-11T03:19:00.692Z,13.65
2018-04-11T03:21:29.503Z,14.95
2018-04-11T03:23:58.353Z,13.38
2018-04-11T03:26:27.164Z,12.00
2018-04-11T03:28:55.993Z,12.73
2018-04-11T03:31:24.803Z,12.45
2018-04-11T03:33:53.627Z,12.40
2018-04-11T03:36:22.464Z,11.95
2018-04-11T03:38:51.263Z,10.98
2018-04-11T03:41:20.099Z,9.88
2018-04-11T03:43:48.912Z,9.80
2018-04-11T03:46:17.771Z,9.75
2018-04-11T03:48:46.585Z,9.15
2018-04-11T03:51:15.428Z,9.00
2018-04-11T03:53:44.223Z,7.85
2018-04-11T03:56:13.059Z,7.40
2018-04-11T03:58:41.862Z,7.45
2018-04-11T04:01:10.697Z,7.62
2018-04-11T04:03:39.507Z,9.02
2018-04-11T04:06:08.341Z,7.93
2018-04-11T04:08:37.153Z,8.13
2018-04-11T04:11:05.974Z,9.43
2018-04-11T04:13:40.622Z,9.55
2018-04-11T04:16:15.189Z,10.15
2018-04-11T04:18:49.967Z,9.65
2018-04-11T04:21:18.775Z,8.82
2018-04-11T04:23:47.619Z,9.23
2018-04-11T04:26:17.412Z,9.85
2018-04-11T04:28:46.251Z,8.68
2018-04-11T04:31:15.160Z,10.32
2018-04-11T04:33:43.995Z,9.68
2018-04-11T04:36:12.817Z,10.45
2018-04-11T04:38:41.646Z,8.43
2018-04-11T04:41:10.487Z,10.02
2018-04-11T04:43:39.326Z,11.00
2018-04-11T04:46:08.138Z,10.60
2018-04-11T04:48:36.974Z,11.05
2018-04-11T04:51:05.792Z,13.77
2018-04-11T04:53:34.627Z,12.10
2018-04-11T04:56:03.435Z,11.95
2018-04-11T04:58:32.264Z,10.68
2018-04-11T05:01:01.084Z,12.07
2018-04-11T05:03:29.919Z,11.75
2018-04-11T05:05:58.731Z,12.32
2018-04-11T05:08:27.567Z,11.40
2018-04-11T05:10:56.392Z,12.77
2018-04-11T05:13:25.225Z,13.40
2018-04-11T05:15:54.031Z,11.88
2018-04-11T05:18:22.869Z,11.57
2018-04-11T05:20:51.707Z,11.35
2018-04-11T05:23:20.521Z,12.48
2018-04-11T05:25:49.374Z,12.27
2018-04-11T05:28:18.193Z,11.93
2018-04-11T05:30:47.032Z,13.00
2018-04-11T05:33:15.850Z,11.10
2018-04-11T05:35:44.654Z,12.68
2018-04-11T05:38:13.583Z,10.77
2018-04-11T05:40:42.396Z,11.63
2018-04-11T05:43:11.250Z,11.48
2018-04-11T05:45:40.070Z,12.52
2018-04-11T05:48:08.907Z,11.80
2018-04-11T05:50:38.324Z,13.82
2018-04-11T05:53:07.191Z,13.82
2018-04-11T05:55:35.976Z,13.50
2018-04-11T05:58:04.899Z,13.30
2018-04-11T06:01:08.846Z,13.38
2018-04-11T06:03:37.677Z,12.93
2018-04-11T06:06:06.488Z,13.55
2018-04-11T06:08:35.343Z,12.55
2018-04-11T06:11:04.154Z,26.15
2018-04-11T06:13:32.995Z,14.18
2018-04-11T06:16:01.803Z,12.80
2018-04-11T06:18:30.607Z,12.52
2018-04-11T06:20:59.624Z,12.77
2018-04-11T06:23:28.521Z,12.73
2018-04-11T06:25:57.341Z,12.15
2018-04-11T06:28:26.204Z,11.77
2018-04-11T06:30:55.045Z,12.00
2018-04-11T06:33:23.860Z,12.15
2018-04-11T06:35:52.706Z,12.57
2018-04-11T06:38:21.520Z,11.52
2018-04-11T06:40:50.361Z,11.68
2018-04-11T06:43:19.176Z,11.30
2018-04-11T06:45:48.009Z,11.60
2018-04-11T06:48:16.854Z,11.98
2018-04-11T06:50:45.809Z,13.00
2018-04-11T06:53:14.629Z,11.65
2018-04-11T06:55:43.592Z,11.85
2018-04-11T06:58:12.407Z,13.02
2018-04-11T07:00:41.264Z,14.10
2018-04-11T07:03:10.103Z,13.80
2018-04-11T07:05:38.981Z,13.30
2018-04-11T07:08:07.799Z,14.25
2018-04-11T07:10:36.608Z,13.45
2018-04-11T07:13:05.536Z,14.05
2018-04-11T07:15:34.359Z,14.52
2018-04-11T07:18:03.204Z,15.05
2018-04-11T07:20:32.026Z,16.77
2018-04-11T07:23:00.868Z,18.35
2018-04-11T07:25:29.708Z,17.60
2018-04-11T07:27:58.517Z,16.05
2018-04-11T07:30:27.366Z,16.55
2018-04-11T07:32:56.196Z,16.00
2018-04-11T07:35:25.031Z,16.02
2018-04-11T07:37:53.871Z,16.83
2018-04-11T07:40:22.763Z,16.35
2018-04-11T07:42:51.583Z,16.50
2018-04-11T07:45:20.402Z,15.73
2018-04-11T07:47:47.890Z,15.20
2018-04-11T07:50:15.356Z,17.90
2018-04-11T07:52:42.853Z,16.60
2018-04-11T07:55:11.112Z,17.15
2018-04-11T07:57:38.577Z,15.73
2018-04-11T08:00:06.067Z,17.20
2018-04-11T08:02:33.584Z,17.37
2018-04-11T08:05:01.103Z,15.67
2018-04-11T08:07:28.585Z,15.20
2018-04-11T08:09:56.151Z,15.27
2018-04-11T08:12:24.337Z,15.73
2018-04-11T08:14:51.817Z,13.57
2018-04-11T08:17:20.039Z,13.67
2018-04-11T08:19:48.899Z,12.87
2018-04-11T08:22:17.769Z,13.07
2018-04-11T08:24:45.241Z,14.20
2018-04-11T08:27:13.511Z,13.10
2018-04-11T08:29:41.758Z,13.13
2018-04-11T08:32:10.783Z,13.73
2018-04-11T08:34:39.022Z,13.50
2018-04-11T08:37:06.489Z,12.57
2018-04-11T08:39:33.998Z,10.17
2018-04-11T08:42:01.489Z,9.50
2018-04-11T08:44:28.985Z,11.37
2018-04-11T08:46:56.477Z,11.23
2018-04-11T08:49:23.971Z,9.93
2018-04-11T08:51:51.463Z,11.40
2018-04-11T08:54:19.718Z,9.13
2018-04-11T08:56:47.184Z,7.87
2018-04-11T08:59:14.648Z,8.77
2018-04-11T09:01:42.924Z,8.63
2018-04-11T09:04:10.410Z,9.77
2018-04-11T09:06:37.887Z,10.20
2018-04-11T09:09:06.508Z,11.00
2018-04-11T09:11:35.363Z,10.43
2018-04-11T09:14:04.219Z,11.17
2018-04-11T09:16:32.500Z,12.27
2018-04-11T09:19:00.806Z,12.43
2018-04-11T09:21:28.306Z,13.93
2018-04-11T09:23:55.787Z,12.47
2018-04-11T09:26:24.034Z,8.43
2018-04-11T09:28:51.495Z,9.77
2018-04-11T09:31:18.972Z,8.23
2018-04-11T09:33:47.227Z,7.80
2018-04-11T09:36:14.713Z,8.50
2018-04-11T09:38:42.995Z,18.73
2018-04-11T09:41:11.811Z,9.47
2018-04-11T09:43:40.662Z,10.20
2018-04-11T09:46:09.519Z,8.80
2018-04-11T09:48:38.375Z,8.00
2018-04-11T09:51:07.190Z,8.30
2018-04-11T09:53:36.011Z,7.60
2018-04-11T09:56:05.116Z,7.33
2018-04-11T09:58:33.364Z,8.33
2018-04-11T10:01:00.825Z,7.53
2018-04-11T10:03:28.328Z,6.90
2018-04-11T10:05:57.130Z,7.80
2018-04-11T10:08:25.938Z,6.53
2018-04-11T10:10:53.419Z,5.17
2018-04-11T10:13:20.906Z,7.43
2018-04-11T10:15:49.149Z,5.83
2018-04-11T10:18:16.627Z,7.37
2018-04-11T10:20:44.104Z,6.47
2018-04-11T10:23:11.579Z,6.23
2018-04-11T10:25:39.071Z,5.93
2018-04-11T10:28:06.539Z,6.30
2018-04-11T10:30:34.038Z,5.60
2018-04-11T10:33:02.259Z,6.57
2018-04-11T10:35:29.737Z,7.33
2018-04-11T10:37:57.200Z,7.90
2018-04-11T10:40:24.667Z,7.43
2018-04-11T10:42:52.906Z,7.37
2018-04-11T10:45:20.474Z,7.40
2018-04-11T10:47:47.937Z,6.97
2018-04-11T10:50:15.412Z,7.27
2018-04-11T10:52:43.006Z,7.20
2018-04-11T10:55:10.465Z,7.20
2018-04-11T10:57:37.920Z,8.17
2018-04-11T11:00:05.452Z,9.10
2018-04-11T11:02:33.711Z,7.63
2018-04-11T11:05:01.173Z,9.00
2018-04-11T11:07:28.664Z,9.80
2018-04-11T11:09:56.881Z,8.77
2018-04-11T11:12:24.344Z,9.10
2018-04-11T11:14:51.826Z,8.60
2018-04-11T11:17:19.283Z,8.50
2018-04-11T11:19:58.570Z,7.90
2018-04-11T11:22:26.042Z,8.40
2018-04-11T11:24:53.527Z,9.93
2018-04-11T11:27:20.988Z,8.80
2018-04-11T11:29:48.478Z,8.80
2018-04-11T11:32:16.715Z,9.10
2018-04-11T11:34:44.205Z,10.30
2018-04-11T11:37:12.453Z,8.57
2018-04-11T11:39:39.960Z,7.77
2018-04-11T11:42:07.432Z,7.97
2018-04-11T11:44:34.908Z,8.50
2018-04-11T11:47:02.400Z,8.90
2018-04-11T11:49:29.861Z,8.43
2018-04-11T11:51:58.117Z,9.20
2018-04-11T11:54:25.604Z,9.87
2018-04-11T11:56:53.079Z,11.83
2018-04-11T11:59:20.598Z,9.37
2018-04-11T12:01:49.447Z,9.20
2018-04-11T12:04:18.263Z,8.90
2018-04-11T12:06:47.125Z,7.97
2018-04-11T12:09:15.927Z,8.70
2018-04-11T12:11:43.385Z,8.57
2018-04-11T12:14:10.872Z,8.33
2018-04-11T12:16:38.349Z,7.07
2018-04-11T12:19:06.665Z,6.97
2018-04-11T12:21:34.152Z,7.33
2018-04-11T12:24:01.615Z,7.80
2018-04-11T12:26:29.070Z,8.17
2018-04-11T12:28:57.337Z,8.87
2018-04-11T12:31:24.816Z,7.60
2018-04-11T12:33:53.090Z,6.97
2018-04-11T12:36:21.324Z,7.17
2018-04-11T12:38:48.828Z,9.00
2018-04-11T12:41:16.281Z,9.50
2018-04-11T12:43:43.792Z,8.70
2018-04-11T12:46:11.248Z,9.53
2018-04-11T12:48:38.703Z,8.47
2018-04-11T12:51:06.195Z,9.30
2018-04-11T12:53:33.642Z,8.77
2018-04-11T12:56:01.132Z,9.40
2018-04-11T12:58:29.751Z,8.80
2018-04-11T13:00:58.598Z,9.17
2018-04-11T13:03:26.070Z,8.63
2018-04-11T13:05:54.908Z,8.63
2018-04-11T13:08:23.733Z,8.33
2018-04-11T13:10:51.221Z,8.13
2018-04-11T13:13:20.040Z,8.50
2018-04-11T13:15:48.875Z,8.67
2018-04-11T13:18:17.745Z,7.80
2018-04-11T13:20:46.510Z,7.73
2018-04-11T13:23:15.406Z,9.20
2018-04-11T13:25:42.964Z,9.27
2018-04-11T13:28:11.760Z,10.23
2018-04-11T13:30:40.372Z,12.50
2018-04-11T13:33:07.878Z,8.93
2018-04-11T13:35:35.324Z,8.97
2018-04-11T13:38:02.810Z,8.30
2018-04-11T13:40:30.300Z,9.63
2018-04-11T13:42:58.901Z,9.53
2018-04-11T13:45:27.728Z,10.30
2018-04-11T13:47:56.556Z,9.83
2018-04-11T13:50:25.363Z,9.00
2018-04-11T13:52:54.237Z,6.10
2018-04-11T13:55:23.173Z,5.07
2018-04-11T13:57:51.983Z,4.80
2018-04-11T14:00:20.996Z,8.73
2018-04-11T14:02:48.461Z,8.13
2018-04-11T14:05:17.851Z,7.20
2018-04-11T14:07:46.670Z,6.47
2018-04-11T14:10:14.148Z,7.70
2018-04-11T14:12:41.608Z,5.67
2018-04-11T14:15:09.892Z,4.90
2018-04-11T14:17:38.138Z,4.60
2018-04-11T14:20:05.613Z,6.30
2018-04-11T14:22:33.065Z,5.63
2018-04-11T14:25:00.605Z,4.50
2018-04-11T14:27:28.098Z,4.33
2018-04-11T14:29:56.342Z,4.40
2018-04-11T14:32:23.826Z,4.40
2018-04-11T14:34:52.046Z,4.67
2018-04-11T14:37:19.546Z,4.73
2018-04-11T14:39:47.016Z,4.20
2018-04-11T14:42:15.261Z,5.40
2018-04-11T14:44:42.719Z,4.50
2018-04-11T14:47:10.211Z,5.37
2018-04-11T14:49:38.450Z,5.70
2018-04-11T14:52:05.935Z,6.53
2018-04-11T14:54:34.213Z,5.93
2018-04-11T14:57:01.681Z,6.43
2018-04-11T14:59:29.929Z,4.37
2018-04-11T15:01:57.412Z,4.43
2018-04-11T15:04:25.662Z,5.40
2018-04-11T15:06:53.182Z,5.93
2018-04-11T15:09:21.410Z,5.30
2018-04-11T15:11:48.945Z,5.13
2018-04-11T15:14:16.441Z,5.30
2018-04-11T15:16:45.430Z,5.13
2018-04-11T15:19:13.688Z,5.70
2018-04-11T15:21:41.163Z,9.33
2018-04-11T15:24:09.426Z,5.73
2018-04-11T15:26:36.904Z,5.20
2018-04-11T15:29:05.158Z,4.77
2018-04-11T15:31:32.628Z,4.90
2018-04-11T15:34:00.133Z,5.03
2018-04-11T15:36:27.598Z,6.07
2018-04-11T15:38:55.104Z,5.40
2018-04-11T15:41:23.350Z,5.30
2018-04-11T15:43:50.820Z,5.23
2018-04-11T15:46:30.405Z,5.73
2018-04-11T15:48:57.982Z,5.80
2018-04-11T15:51:25.452Z,5.47
2018-04-11T15:53:52.916Z,6.30
2018-04-11T15:56:20.447Z,5.77
2018-04-11T15:58:48.693Z,5.60
2018-04-11T16:01:16.953Z,5.70
2018-04-11T16:03:44.418Z,6.30
2018-04-11T16:06:11.918Z,4.97
2018-04-11T16:08:39.395Z,5.20
2018-04-11T16:11:06.896Z,5.20
2018-04-11T16:13:34.373Z,5.40
2018-04-11T16:16:02.619Z,4.87
2018-04-11T16:18:30.092Z,4.97
2018-04-11T16:20:57.596Z,5.40
2018-04-11T16:23:25.056Z,4.50
2018-04-11T16:25:52.537Z,5.47
2018-04-11T16:28:20.223Z,5.47
2018-04-11T16:30:48.471Z,5.93
2018-04-11T16:33:17.319Z,7.00
2018-04-11T16:35:46.162Z,5.33
2018-04-11T16:38:15.016Z,5.13
2018-04-11T16:40:43.852Z,6.27
2018-04-11T16:43:12.714Z,6.30
2018-04-11T16:45:41.536Z,8.70
2018-04-11T16:48:10.392Z,4.67
2018-04-11T16:50:39.209Z,4.70
2018-04-11T16:53:08.076Z,5.10
2018-04-11T16:55:36.896Z,4.20
2018-04-11T16:58:05.772Z,4.63
2018-04-11T17:00:34.672Z,4.50
2018-04-11T17:03:03.494Z,5.00
2018-04-11T17:05:32.344Z,5.00
2018-04-11T17:08:01.185Z,4.87
2018-04-11T17:10:30.036Z,4.53
2018-04-11T17:12:58.847Z,4.50
2018-04-11T17:15:27.706Z,4.90
2018-04-11T17:17:56.540Z,5.50
2018-04-11T17:23:29.891Z,4.43
2018-04-11T17:26:04.596Z,5.17
2018-04-11T17:28:39.345Z,5.07
2018-04-11T17:31:25.933Z,5.67
2018-04-11T17:33:54.771Z,5.60
2018-04-11T17:36:23.633Z,5.87
2018-04-11T17:38:52.436Z,4.83
2018-04-11T17:41:21.271Z,6.63
2018-04-11T17:43:50.103Z,6.80
2018-04-11T17:46:18.968Z,6.57
2018-04-11T17:48:47.808Z,5.87
2018-04-11T17:51:16.750Z,4.87
2018-04-11T17:53:45.365Z,5.20
2018-04-11T18:06:00.750Z,5.10
2018-04-11T18:08:29.621Z,4.60
2018-04-11T18:10:57.915Z,5.00
2018-04-11T18:13:26.915Z,4.57
2018-04-11T18:15:55.977Z,4.50
2018-04-11T18:18:24.853Z,4.93
2018-04-11T18:20:53.663Z,6.30
2018-04-11T18:23:22.547Z,5.20
2018-04-11T18:25:51.360Z,7.47
2018-04-11T18:28:20.218Z,4.87
2018-04-11T18:30:49.231Z,5.70
2018-04-11T18:33:18.111Z,4.80
2018-04-11T18:35:46.949Z,5.00
2018-04-11T18:38:15.800Z,4.60
2018-04-11T18:40:44.649Z,4.70
2018-04-11T18:43:13.502Z,5.43
2018-04-11T18:45:42.340Z,4.80
2018-04-11T18:48:11.207Z,5.00
2018-04-11T18:50:40.040Z,5.17
2018-04-11T18:53:08.899Z,5.07
2018-04-11T18:55:37.787Z,5.60
2018-04-11T18:58:06.720Z,5.10
2018-04-11T19:00:35.594Z,5.20
2018-04-11T19:03:04.499Z,6.87
2018-04-11T19:05:33.358Z,5.63
2018-04-11T19:08:02.198Z,6.07
2018-04-11T19:10:31.059Z,5.87
2018-04-11T19:12:59.954Z,5.47
2018-04-11T19:15:28.765Z,5.97
2018-04-11T19:17:57.625Z,5.80
2018-04-11T19:20:26.478Z,7.90
2018-04-11T19:22:55.332Z,5.50
2018-04-11T19:25:24.226Z,5.17
2018-04-11T19:27:53.085Z,5.70
2018-04-11T19:30:21.932Z,5.70
2018-04-11T19:32:51.486Z,6.30
2018-04-11T19:35:20.339Z,5.30
2018-04-11T19:37:49.265Z,5.33
2018-04-11T19:40:17.934Z,5.70
2018-04-11T19:42:46.791Z,6.27
2018-04-11T19:45:15.597Z,6.47
2018-04-11T19:47:44.524Z,8.37
2018-04-11T19:50:13.407Z,6.13
2018-04-11T19:52:42.225Z,5.60
2018-04-11T19:55:11.088Z,6.23
2018-04-11T19:57:39.920Z,6.57
2018-04-11T20:00:08.773Z,6.70
2018-04-11T20:02:37.601Z,6.10
2018-04-11T20:05:06.486Z,6.30
2018-04-11T20:07:35.325Z,6.20
2018-04-11T20:10:04.183Z,7.20
2018-04-11T20:12:31.673Z,6.60
2018-04-11T20:14:59.235Z,6.37
2018-04-11T20:17:28.081Z,7.90
2018-04-11T20:19:56.931Z,6.33
2018-04-11T20:22:24.653Z,6.43
2018-04-11T20:24:53.509Z,6.33
2018-04-11T20:27:22.430Z,6.77
2018-04-11T20:29:51.274Z,6.87
2018-04-11T20:32:22.402Z,6.13
2018-04-11T20:34:49.892Z,6.40
2018-04-11T20:37:18.183Z,6.73
2018-04-11T20:39:47.329Z,6.63
2018-04-11T20:42:16.176Z,6.63
2018-04-11T20:44:45.000Z,6.27
2018-04-11T20:47:13.863Z,7.37
2018-04-11T20:49:42.689Z,7.07
2018-04-11T20:52:11.566Z,6.13
2018-04-11T20:54:40.406Z,7.93
2018-04-11T20:57:09.253Z,7.20
2018-04-11T20:59:38.094Z,9.43
2018-04-11T21:02:06.940Z,8.93
2018-04-11T21:04:35.787Z,7.27
2018-04-11T21:07:04.471Z,10.33
2018-04-11T21:09:33.338Z,10.17
2018-04-11T21:12:02.201Z,7.47
2018-04-11T21:14:31.050Z,7.60
2018-04-11T21:17:00.020Z,7.67
2018-04-11T21:19:28.905Z,7.00
2018-04-11T21:21:57.702Z,7.77
2018-04-11T21:24:26.573Z,7.73
2018-04-11T21:26:55.408Z,8.07
2018-04-11T21:29:24.273Z,7.53
2018-04-11T21:31:52.539Z,7.37
2018-04-11T21:34:21.698Z,8.60
2018-04-11T21:36:50.527Z,7.77
2018-04-11T21:39:19.373Z,7.87
2018-04-11T21:41:48.187Z,8.23
2018-04-11T21:44:17.083Z,9.07
2018-04-11T21:46:45.908Z,8.00
2018-04-11T21:49:14.715Z,7.80
2018-04-11T21:51:43.578Z,8.97
2018-04-11T21:54:12.387Z,8.80
2018-04-11T21:56:41.223Z,7.80
2018-04-11T21:59:10.027Z,7.40
2018-04-11T22:01:38.874Z,7.40
2018-04-11T22:04:07.677Z,8.40
2018-04-11T22:06:36.643Z,7.90
2018-04-11T22:09:05.472Z,8.00
2018-04-11T22:11:34.320Z,7.70
2018-04-11T22:14:03.133Z,7.67
2018-04-11T22:16:31.968Z,7.73
2018-04-11T22:19:00.787Z,8.33
2018-04-11T22:21:29.610Z,7.50
2018-04-11T22:23:58.432Z,8.10
2018-04-11T22:26:27.292Z,8.20
2018-04-11T22:28:56.179Z,8.43
2018-04-11T22:31:24.957Z,7.77
2018-04-11T22:33:53.823Z,7.47
2018-04-11T22:36:22.720Z,7.93
2018-04-11T22:38:50.924Z,8.37
2018-04-11T22:41:18.414Z,8.23
2018-04-11T22:43:46.654Z,7.03
2018-04-11T22:46:14.116Z,8.33
2018-04-11T22:48:41.624Z,7.87
2018-04-11T22:51:09.090Z,7.03
2018-04-11T22:53:36.565Z,8.13
2018-04-11T22:56:04.031Z,10.73
2018-04-11T22:58:31.539Z,7.87
2018-04-11T23:00:59.767Z,7.70
2018-04-11T23:03:27.277Z,8.00
2018-04-11T23:05:54.778Z,7.47
2018-04-11T23:08:22.336Z,8.53
2018-04-11T23:10:51.362Z,8.37
2018-04-11T23:13:20.168Z,7.87
2018-04-11T23:15:49.011Z,7.53
2018-04-11T23:18:17.827Z,7.77
2018-04-11T23:20:46.647Z,8.80
2018-04-11T23:23:15.470Z,7.83
2018-04-11T23:25:44.304Z,8.10
2018-04-11T23:28:13.195Z,7.53
2018-04-11T23:30:42.035Z,7.70
2018-04-11T23:33:10.616Z,8.17
2018-04-11T23:35:39.444Z,8.30
2018-04-11T23:38:08.268Z,7.23
2018-04-11T23:40:37.083Z,7.50
2018-04-11T23:43:05.926Z,8.10
2018-04-11T23:45:34.758Z,7.83
2018-04-11T23:48:03.638Z,7.47
2018-04-11T23:50:32.474Z,8.27
2018-04-11T23:53:01.324Z,7.80
2018-04-11T23:55:30.134Z,8.60
2018-04-11T23:57:58.987Z,8.20
